Weather at Antonio Maceo International Airport

Public forecast

Using degrees Celsius for public forecast. Weather courtesy of forecast.io.

Current aviation weather report (METAR) for Antonio Maceo International Airport

Retrieved 2021/06/19 04:50 UTC (16 minutes ago):

MUCU 190450Z 09003KT 9000 FEW020 27/24 Q1017

Aviation forecast (TAF) for Antonio Maceo International Airport

Retrieved 2021-06-19 00:03 UTC (5 hours ago):

TAF MUCU 182300Z 1900/1924 15008KT 9000 SCT020 BECMG 1901/1903 VRB03KT BECMG 1915/1917 16008KT TEMPO 1918/1924 4000 TSRA SCT018CB BKN030